createdAt,value
2017-12-27T00:00:07.158Z,77.04
2017-12-27T00:02:39.048Z,77.11
2017-12-27T00:05:10.967Z,77.08
2017-12-27T00:07:42.962Z,77.41
2017-12-27T00:10:14.825Z,77.50
2017-12-27T00:12:46.793Z,77.68
2017-12-27T00:15:18.676Z,77.61
2017-12-27T00:17:50.629Z,77.58
2017-12-27T00:20:22.476Z,77.47
2017-12-27T00:22:54.473Z,77.41
2017-12-27T00:25:26.435Z,76.96
2017-12-27T00:30:58.114Z,76.37
2017-12-27T00:33:23.989Z,76.32
2017-12-27T00:35:49.809Z,76.37
2017-12-27T00:38:15.648Z,75.99
2017-12-27T00:40:41.424Z,75.97
2017-12-27T00:43:07.251Z,75.63
2017-12-27T00:45:33.118Z,75.54
2017-12-27T00:47:58.957Z,75.96
2017-12-27T00:50:25.891Z,75.90
2017-12-27T00:52:51.725Z,75.88
2017-12-27T00:55:20.809Z,76.23
2017-12-27T00:57:46.641Z,76.09
2017-12-27T01:00:14.827Z,75.96
2017-12-27T01:02:40.635Z,76.06
2017-12-27T01:05:09.332Z,75.95
2017-12-27T01:07:35.181Z,76.14
2017-12-27T01:10:04.257Z,76.03
2017-12-27T01:12:30.080Z,76.12
2017-12-27T01:14:59.523Z,76.25
2017-12-27T01:17:25.321Z,75.75
2017-12-27T01:19:51.157Z,76.22
2017-12-27T01:22:16.989Z,76.45
2017-12-27T01:24:42.852Z,76.56
2017-12-27T01:27:11.686Z,76.68
2017-12-27T01:29:37.532Z,76.67
2017-12-27T01:32:05.286Z,76.35
2017-12-27T01:34:31.145Z,76.73
2017-12-27T01:37:00.243Z,76.56
2017-12-27T01:39:26.040Z,76.61
2017-12-27T01:41:55.420Z,76.84
2017-12-27T01:44:21.268Z,76.97
2017-12-27T01:47:02.944Z,76.72
2017-12-27T01:49:28.753Z,76.65
2017-12-27T01:51:54.611Z,76.60
2017-12-27T01:54:20.448Z,76.77
2017-12-27T01:56:46.282Z,76.65
2017-12-27T01:59:12.125Z,76.79
2017-12-27T02:01:37.959Z,76.51
2017-12-27T02:04:03.772Z,76.73
2017-12-27T02:06:29.607Z,76.59
2017-12-27T02:08:55.470Z,77.10
2017-12-27T02:11:21.258Z,77.21
2017-12-27T02:13:47.083Z,77.23
2017-12-27T02:16:12.875Z,77.25
2017-12-27T02:18:40.452Z,77.37
2017-12-27T02:21:06.272Z,77.63
2017-12-27T02:23:35.225Z,77.61
2017-12-27T02:26:01.131Z,77.40
2017-12-27T02:28:30.023Z,77.74
2017-12-27T02:30:55.834Z,77.83
2017-12-27T02:33:21.656Z,78.15
2017-12-27T02:35:47.547Z,78.29
2017-12-27T02:38:13.414Z,78.17
2017-12-27T02:40:40.953Z,78.09
2017-12-27T02:43:06.787Z,78.08
2017-12-27T02:48:03.402Z,77.92
2017-12-27T02:50:32.540Z,77.83
2017-12-27T02:52:58.393Z,77.65
2017-12-27T02:55:27.319Z,77.30
2017-12-27T02:57:53.136Z,77.10
2017-12-27T03:00:20.269Z,77.24
2017-12-27T03:02:46.113Z,77.14
2017-12-27T03:05:14.772Z,77.07
2017-12-27T03:07:40.595Z,77.24
2017-12-27T03:10:06.439Z,76.80
2017-12-27T03:12:32.254Z,76.60
2017-12-27T03:14:58.081Z,76.34
2017-12-27T03:17:27.404Z,76.35
2017-12-27T03:19:53.240Z,76.92
2017-12-27T03:22:22.479Z,77.08
2017-12-27T03:24:48.338Z,76.64
2017-12-27T03:27:16.271Z,76.72
2017-12-27T03:29:42.086Z,76.76
2017-12-27T03:32:11.350Z,76.65
2017-12-27T03:34:37.138Z,76.58
2017-12-27T03:37:06.109Z,76.57
2017-12-27T03:39:32.013Z,76.31
2017-12-27T03:42:01.005Z,76.55
2017-12-27T03:44:26.832Z,75.92
2017-12-27T03:46:52.608Z,75.77
2017-12-27T03:49:18.426Z,75.59
2017-12-27T03:51:44.255Z,75.69
2017-12-27T03:54:13.213Z,75.98
2017-12-27T03:56:39.047Z,75.67
2017-12-27T03:59:08.151Z,75.41
2017-12-27T04:01:34.022Z,75.50
2017-12-27T04:04:02.965Z,75.60
2017-12-27T04:06:28.778Z,75.60
2017-12-27T04:08:57.849Z,75.47
2017-12-27T04:11:23.721Z,75.52
2017-12-27T04:13:52.655Z,75.20
2017-12-27T04:16:18.488Z,75.37
2017-12-27T04:18:47.374Z,75.56
2017-12-27T04:21:13.231Z,75.41
2017-12-27T04:23:39.086Z,75.18
2017-12-27T04:26:04.909Z,75.25
2017-12-27T04:28:30.794Z,75.25
2017-12-27T04:30:57.912Z,75.54
2017-12-27T04:33:23.746Z,75.61
2017-12-27T04:35:52.832Z,75.73
2017-12-27T04:38:18.688Z,75.57
2017-12-27T04:40:46.650Z,75.54
2017-12-27T04:43:12.475Z,75.19
2017-12-27T04:45:41.381Z,74.99
2017-12-27T04:48:07.205Z,75.09
2017-12-27T04:50:35.804Z,74.76
2017-12-27T04:53:01.698Z,74.93
2017-12-27T04:57:58.345Z,74.62
2017-12-27T05:00:24.180Z,74.75
2017-12-27T05:02:50.034Z,74.41
2017-12-27T05:05:15.846Z,74.25
2017-12-27T05:07:42.934Z,74.49
2017-12-27T05:10:08.780Z,74.55
2017-12-27T05:12:38.517Z,74.39
2017-12-27T05:15:04.362Z,74.29
2017-12-27T05:17:33.458Z,74.34
2017-12-27T05:19:59.243Z,74.29
2017-12-27T05:22:28.098Z,74.25
2017-12-27T05:24:53.934Z,74.12
2017-12-27T05:27:22.992Z,74.33
2017-12-27T05:29:48.864Z,74.21
2017-12-27T05:32:17.739Z,73.76
2017-12-27T05:34:43.592Z,73.78
2017-12-27T05:37:09.486Z,73.95
2017-12-27T05:39:35.325Z,73.33
2017-12-27T05:42:01.173Z,73.51
2017-12-27T05:44:28.500Z,73.57
2017-12-27T05:46:54.521Z,72.82
2017-12-27T05:49:24.178Z,72.28
2017-12-27T05:51:50.115Z,72.03
2017-12-27T05:54:17.301Z,71.92
2017-12-27T05:56:43.115Z,71.47
2017-12-27T05:59:11.957Z,71.40
2017-12-27T06:01:37.816Z,71.61
2017-12-27T06:04:07.201Z,71.97
2017-12-27T06:06:33.034Z,71.94
2017-12-27T06:09:01.574Z,71.88
2017-12-27T06:11:27.406Z,71.89
2017-12-27T06:13:53.217Z,71.80
2017-12-27T06:16:19.074Z,71.60
2017-12-27T06:18:44.938Z,70.82
2017-12-27T06:21:13.949Z,70.26
2017-12-27T06:23:39.761Z,69.87
2017-12-27T06:26:08.740Z,69.34
2017-12-27T06:28:34.598Z,69.13
2017-12-27T06:31:03.448Z,69.10
2017-12-27T06:33:29.231Z,68.72
2017-12-27T06:35:58.364Z,67.77
2017-12-27T06:38:24.197Z,67.52
2017-12-27T06:40:53.318Z,67.06
2017-12-27T06:43:19.137Z,66.75
2017-12-27T06:45:48.366Z,66.15
2017-12-27T06:48:14.177Z,65.97
2017-12-27T06:50:40.027Z,65.44
2017-12-27T06:53:05.901Z,65.06
2017-12-27T06:55:31.732Z,65.32
2017-12-27T06:57:58.757Z,65.33
2017-12-27T07:00:24.601Z,65.84
2017-12-27T07:02:54.547Z,65.61
2017-12-27T07:05:20.405Z,65.80
2017-12-27T07:07:49.825Z,66.57
2017-12-27T07:10:15.628Z,66.49
2017-12-27T07:12:44.669Z,65.88
2017-12-27T07:15:10.524Z,66.54
2017-12-27T07:17:37.446Z,66.91
2017-12-27T07:20:03.325Z,67.41
2017-12-27T07:22:33.592Z,67.36
2017-12-27T07:24:59.469Z,68.19
2017-12-27T07:27:25.301Z,67.98
2017-12-27T07:29:51.141Z,69.08
2017-12-27T07:32:16.967Z,68.98
2017-12-27T07:34:44.032Z,69.15
2017-12-27T07:37:09.895Z,69.38
2017-12-27T07:39:38.580Z,69.83
2017-12-27T07:42:04.421Z,69.94
2017-12-27T07:44:33.474Z,69.34
2017-12-27T07:46:59.440Z,69.57
2017-12-27T07:49:28.450Z,69.74
2017-12-27T07:51:54.275Z,69.48
2017-12-27T07:54:23.236Z,69.63
2017-12-27T07:56:49.047Z,69.70
2017-12-27T07:59:18.091Z,70.06
2017-12-27T08:01:43.915Z,69.85
2017-12-27T08:04:09.782Z,69.77
2017-12-27T08:06:35.640Z,69.69
2017-12-27T08:09:01.428Z,69.64
2017-12-27T08:11:30.180Z,69.58
2017-12-27T08:13:55.998Z,69.22
2017-12-27T08:16:25.463Z,69.29
2017-12-27T08:18:51.315Z,69.19
2017-12-27T08:21:20.401Z,69.35
2017-12-27T08:23:46.253Z,69.30
2017-12-27T08:26:15.184Z,69.58
2017-12-27T08:28:41.041Z,69.39
2017-12-27T08:31:08.155Z,69.54
2017-12-27T08:33:33.998Z,69.68
2017-12-27T08:36:02.666Z,69.69
2017-12-27T08:38:28.489Z,69.66
2017-12-27T08:40:54.378Z,69.78
2017-12-27T08:43:20.225Z,69.24
2017-12-27T08:45:46.014Z,68.98
2017-12-27T08:48:14.967Z,69.09
2017-12-27T08:50:40.834Z,69.11
2017-12-27T08:53:10.627Z,68.63
2017-12-27T08:55:36.453Z,68.63
2017-12-27T08:58:05.328Z,69.17
2017-12-27T09:00:31.192Z,69.89
2017-12-27T09:02:58.932Z,67.91
2017-12-27T09:05:24.734Z,67.95
2017-12-27T09:07:53.777Z,67.71
2017-12-27T09:10:19.628Z,67.34
2017-12-27T09:12:49.053Z,68.77
2017-12-27T09:15:14.888Z,68.16
2017-12-27T09:17:40.700Z,68.37
2017-12-27T09:20:06.551Z,68.42
2017-12-27T09:22:32.393Z,68.81
2017-12-27T09:25:00.130Z,69.43
2017-12-27T09:27:26.014Z,70.42
2017-12-27T09:29:55.031Z,70.44
2017-12-27T09:32:20.855Z,71.38
2017-12-27T09:34:49.731Z,72.31
2017-12-27T09:37:15.580Z,71.81
2017-12-27T09:39:44.717Z,73.87
2017-12-27T09:42:10.550Z,74.13
2017-12-27T09:44:39.538Z,74.53
2017-12-27T09:47:05.374Z,74.07
2017-12-27T09:49:34.305Z,73.14
2017-12-27T09:52:00.137Z,73.98
2017-12-27T09:54:26.009Z,75.32
2017-12-27T09:56:52.550Z,74.48
2017-12-27T09:59:18.368Z,75.12
2017-12-27T10:01:45.599Z,76.01
2017-12-27T10:04:11.445Z,74.51
2017-12-27T10:06:40.378Z,74.82
2017-12-27T10:09:06.205Z,75.40
2017-12-27T10:11:35.324Z,74.67
2017-12-27T10:14:01.162Z,75.08
2017-12-27T10:16:30.969Z,75.18
2017-12-27T10:18:56.833Z,75.57
2017-12-27T10:21:25.935Z,75.89
2017-12-27T10:23:51.777Z,76.45
2017-12-27T10:26:18.882Z,75.92
2017-12-27T10:28:44.702Z,76.16
2017-12-27T10:31:10.543Z,76.56
2017-12-27T10:33:36.368Z,76.31
2017-12-27T10:36:02.272Z,75.25
2017-12-27T10:38:31.961Z,75.82
2017-12-27T10:40:57.837Z,75.23
2017-12-27T10:43:26.800Z,75.45
2017-12-27T10:45:52.627Z,75.94
2017-12-27T10:48:21.713Z,75.57
2017-12-27T10:50:47.565Z,75.25
2017-12-27T10:53:14.626Z,75.06
2017-12-27T10:55:40.437Z,76.47
2017-12-27T10:58:09.221Z,74.58
2017-12-27T11:00:35.083Z,75.56
2017-12-27T11:03:03.572Z,74.78
2017-12-27T11:05:29.455Z,74.27
2017-12-27T11:07:55.257Z,74.91
2017-12-27T11:10:21.074Z,74.49
2017-12-27T11:12:46.921Z,75.54
2017-12-27T11:15:16.291Z,75.19
2017-12-27T11:17:42.136Z,75.93
2017-12-27T11:20:11.480Z,76.23
2017-12-27T11:22:37.321Z,76.29
2017-12-27T11:25:05.470Z,76.17
2017-12-27T11:27:31.281Z,76.17
2017-12-27T11:29:59.881Z,75.77
2017-12-27T11:32:25.684Z,75.71
2017-12-27T11:34:54.435Z,75.53
2017-12-27T11:37:20.291Z,75.68
2017-12-27T11:39:46.878Z,76.47
2017-12-27T11:42:12.727Z,76.25
2017-12-27T11:44:38.518Z,76.87
2017-12-27T11:47:07.305Z,75.78
2017-12-27T11:49:33.098Z,75.05
2017-12-27T11:52:02.904Z,73.41
2017-12-27T11:54:28.780Z,72.61
2017-12-27T11:56:57.664Z,72.12
2017-12-27T11:59:23.496Z,71.70
2017-12-27T12:01:52.473Z,71.88
2017-12-27T12:04:18.296Z,71.83
2017-12-27T12:06:45.406Z,71.45
2017-12-27T12:09:11.253Z,71.73
2017-12-27T12:11:41.075Z,72.10
2017-12-27T12:14:06.890Z,71.93
2017-12-27T12:16:34.984Z,71.80
2017-12-27T12:19:00.822Z,71.70
2017-12-27T12:21:26.708Z,71.36
2017-12-27T12:23:52.575Z,70.57
2017-12-27T12:26:18.425Z,71.06
2017-12-27T12:28:47.136Z,69.81
2017-12-27T12:31:12.995Z,71.33
2017-12-27T12:33:42.634Z,71.43
2017-12-27T12:36:08.461Z,72.18
2017-12-27T12:38:37.603Z,72.70
2017-12-27T12:41:03.438Z,72.37
2017-12-27T12:43:32.451Z,72.51
2017-12-27T12:45:58.333Z,73.25
2017-12-27T12:48:25.450Z,73.12
2017-12-27T12:50:51.276Z,73.20
2017-12-27T12:53:20.290Z,73.42
2017-12-27T12:55:46.163Z,72.57
2017-12-27T12:58:11.980Z,73.01
2017-12-27T13:00:37.828Z,73.08
2017-12-27T13:03:03.662Z,73.50
2017-12-27T13:05:32.691Z,73.03
2017-12-27T13:07:58.566Z,73.00
2017-12-27T13:10:26.382Z,73.16
2017-12-27T13:12:52.285Z,73.69
2017-12-27T13:15:21.228Z,74.10
2017-12-27T13:17:47.031Z,74.43
2017-12-27T13:20:16.532Z,74.53
2017-12-27T13:22:42.382Z,74.92
2017-12-27T13:25:11.249Z,75.13
2017-12-27T13:27:37.116Z,75.63
2017-12-27T13:30:06.214Z,76.18
2017-12-27T13:32:32.096Z,76.50
2017-12-27T13:34:57.878Z,76.78
2017-12-27T13:37:23.719Z,76.70
2017-12-27T13:39:49.557Z,77.01
2017-12-27T13:42:18.878Z,77.67
2017-12-27T13:44:44.702Z,77.67
2017-12-27T13:47:11.867Z,77.87
2017-12-27T13:49:37.707Z,77.74
2017-12-27T13:52:07.468Z,77.89
2017-12-27T13:54:33.276Z,77.63
2017-12-27T13:57:02.213Z,77.76
2017-12-27T13:59:28.065Z,77.45
2017-12-27T14:01:56.889Z,77.81
2017-12-27T14:04:22.721Z,77.79
2017-12-27T14:06:52.238Z,77.75
2017-12-27T14:09:18.066Z,77.99
2017-12-27T14:11:44.012Z,78.34
2017-12-27T14:14:09.845Z,78.58
2017-12-27T14:16:35.646Z,78.50
2017-12-27T14:19:02.823Z,78.48
2017-12-27T14:21:28.629Z,78.20
2017-12-27T14:23:57.597Z,78.01
2017-12-27T14:26:23.453Z,77.47
2017-12-27T14:28:52.322Z,77.78
2017-12-27T14:31:18.183Z,77.73
2017-12-27T14:33:47.055Z,77.92
2017-12-27T14:36:13.170Z,77.63
2017-12-27T14:38:42.767Z,77.85
2017-12-27T14:41:08.596Z,78.01
2017-12-27T14:43:37.779Z,78.07
2017-12-27T14:46:03.593Z,77.74
2017-12-27T14:48:29.428Z,77.77
2017-12-27T14:50:55.215Z,77.94
2017-12-27T14:53:21.053Z,78.33
2017-12-27T14:55:47.858Z,78.56
2017-12-27T14:58:13.721Z,78.67
2017-12-27T15:00:42.615Z,78.36
2017-12-27T15:03:08.470Z,78.53
2017-12-27T15:05:37.108Z,78.73
2017-12-27T15:08:02.929Z,78.74
2017-12-27T15:10:31.703Z,79.18
2017-12-27T15:12:57.543Z,79.33
2017-12-27T15:15:26.472Z,79.69
2017-12-27T15:17:52.287Z,79.87
2017-12-27T15:20:21.669Z,79.98
2017-12-27T15:22:47.486Z,80.34
2017-12-27T15:25:13.344Z,80.49
2017-12-27T15:27:39.180Z,80.52
2017-12-27T15:30:05.025Z,80.89
2017-12-27T15:32:33.027Z,81.19
2017-12-27T15:34:58.852Z,81.40
2017-12-27T15:37:28.901Z,81.40
2017-12-27T15:39:54.748Z,81.67
2017-12-27T15:42:23.014Z,82.03
2017-12-27T15:44:48.837Z,82.12
2017-12-27T15:47:17.388Z,82.15
2017-12-27T15:49:43.183Z,82.25
2017-12-27T15:52:12.813Z,82.22
2017-12-27T15:54:38.624Z,82.23
2017-12-27T15:57:08.142Z,82.31
2017-12-27T15:59:34.013Z,82.29
2017-12-27T16:01:59.839Z,82.08
2017-12-27T16:04:25.691Z,82.03
2017-12-27T16:06:51.557Z,82.01
2017-12-27T16:09:18.306Z,82.45
2017-12-27T16:11:44.153Z,82.20
2017-12-27T16:14:13.759Z,82.00
2017-12-27T16:16:39.585Z,81.82
2017-12-27T16:19:08.593Z,82.41
2017-12-27T16:21:34.395Z,82.57
2017-12-27T16:24:03.624Z,82.97
2017-12-27T16:26:29.500Z,82.59
2017-12-27T16:28:57.386Z,82.58
2017-12-27T16:31:23.193Z,82.96
2017-12-27T16:33:52.363Z,82.91
2017-12-27T16:36:18.210Z,83.21
2017-12-27T16:38:44.048Z,83.36
2017-12-27T16:41:09.857Z,83.72
2017-12-27T16:43:35.692Z,83.81
2017-12-27T16:46:03.251Z,83.60
2017-12-27T16:48:29.097Z,83.61
2017-12-27T16:53:25.682Z,82.93
2017-12-27T16:55:53.262Z,82.82
2017-12-27T16:58:19.079Z,82.76
2017-12-27T17:00:48.957Z,82.91
2017-12-27T17:03:14.828Z,82.43
2017-12-27T17:05:42.569Z,82.47
2017-12-27T17:08:08.390Z,82.07
2017-12-27T17:10:37.520Z,82.32
2017-12-27T17:13:03.395Z,82.06
2017-12-27T17:15:29.249Z,81.71
2017-12-27T17:17:55.086Z,81.37
2017-12-27T17:20:20.921Z,81.27
2017-12-27T17:22:50.196Z,80.85
2017-12-27T17:25:16.045Z,80.95
2017-12-27T17:27:45.129Z,80.55
2017-12-27T17:30:10.957Z,80.58
2017-12-27T17:32:39.874Z,80.79
2017-12-27T17:35:05.733Z,80.78
2017-12-27T17:37:34.702Z,81.32
2017-12-27T17:40:00.567Z,81.52
2017-12-27T17:42:29.564Z,80.92
2017-12-27T17:44:55.365Z,80.65
2017-12-27T17:47:22.485Z,80.39
2017-12-27T17:49:48.334Z,80.53
2017-12-27T17:52:14.192Z,80.80
2017-12-27T17:54:40.028Z,81.49
2017-12-27T17:57:05.860Z,81.50
2017-12-27T17:59:35.689Z,81.42
2017-12-27T18:02:01.513Z,81.02
2017-12-27T18:04:30.533Z,80.75
2017-12-27T18:06:56.352Z,80.55
2017-12-27T18:09:25.505Z,80.27
2017-12-27T18:11:51.317Z,80.29
2017-12-27T18:14:18.483Z,80.22
2017-12-27T18:16:44.321Z,79.82
2017-12-27T18:19:13.693Z,80.04
2017-12-27T18:21:39.502Z,79.96
2017-12-27T18:24:09.096Z,80.20
2017-12-27T18:26:34.942Z,80.12
2017-12-27T18:29:00.755Z,79.52
2017-12-27T18:31:26.614Z,80.00
2017-12-27T18:33:52.456Z,80.52
2017-12-27T18:36:20.041Z,80.51
2017-12-27T18:38:45.879Z,81.38
2017-12-27T18:41:14.847Z,81.37
2017-12-27T18:43:40.664Z,80.94
2017-12-27T18:46:09.904Z,81.01
2017-12-27T18:48:35.749Z,81.32
2017-12-27T18:51:05.581Z,81.25
2017-12-27T18:53:31.432Z,81.34
2017-12-27T18:55:58.413Z,81.38
2017-12-27T18:58:24.288Z,81.39
2017-12-27T19:00:52.878Z,81.60
2017-12-27T19:03:18.719Z,81.37
2017-12-27T19:05:44.593Z,81.57
2017-12-27T19:08:10.424Z,81.54
2017-12-27T19:10:36.250Z,81.37
2017-12-27T19:13:05.794Z,81.36
2017-12-27T19:15:31.612Z,81.22
2017-12-27T19:17:59.294Z,81.40
2017-12-27T19:20:25.121Z,81.76
2017-12-27T19:25:21.802Z,81.25
2017-12-27T19:27:49.617Z,80.96
2017-12-27T19:30:15.463Z,80.97
2017-12-27T19:32:44.446Z,81.16
2017-12-27T19:35:10.281Z,81.40
2017-12-27T19:37:39.209Z,81.65
2017-12-27T19:40:05.048Z,82.55
2017-12-27T19:42:30.871Z,83.67
2017-12-27T19:44:56.691Z,84.18
2017-12-27T19:47:22.506Z,84.38
2017-12-27T19:49:50.266Z,84.08
2017-12-27T19:52:16.070Z,84.25
2017-12-27T19:54:45.405Z,84.19
2017-12-27T19:57:11.246Z,84.45
2017-12-27T19:59:41.006Z,84.44
2017-12-27T20:02:06.914Z,84.52
2017-12-27T20:04:34.617Z,84.37
2017-12-27T20:07:00.447Z,84.42
2017-12-27T20:09:29.546Z,84.12
2017-12-27T20:11:55.365Z,83.97
2017-12-27T20:14:24.317Z,83.82
2017-12-27T20:16:50.140Z,83.74
2017-12-27T20:19:15.912Z,82.64
2017-12-27T20:21:41.714Z,82.45
2017-12-27T20:24:07.525Z,81.92
2017-12-27T20:26:35.128Z,81.95
2017-12-27T20:29:00.970Z,82.21
2017-12-27T20:33:57.741Z,82.39
2017-12-27T20:36:24.850Z,82.28
2017-12-27T20:38:50.694Z,82.26
2017-12-27T20:41:19.464Z,81.96
2017-12-27T20:43:45.334Z,82.55
2017-12-27T20:46:14.072Z,82.71
2017-12-27T20:48:39.956Z,84.01
2017-12-27T20:51:09.312Z,84.14
2017-12-27T20:53:35.178Z,84.28
2017-12-27T20:56:01.012Z,84.40
2017-12-27T20:58:26.826Z,83.57
2017-12-27T21:00:52.665Z,83.68
2017-12-27T21:03:22.206Z,83.47
2017-12-27T21:05:48.045Z,83.40
2017-12-27T21:08:16.857Z,83.36
2017-12-27T21:10:42.679Z,82.34
2017-12-27T21:13:10.367Z,82.70
2017-12-27T21:15:36.186Z,82.79
2017-12-27T21:18:04.835Z,81.79
2017-12-27T21:20:30.652Z,80.96
2017-12-27T21:25:27.364Z,81.69
2017-12-27T21:27:54.730Z,81.78
2017-12-27T21:30:20.558Z,81.59
2017-12-27T21:32:46.373Z,77.38
2017-12-27T21:35:12.226Z,78.49
2017-12-27T21:37:38.039Z,78.50
2017-12-27T21:40:06.962Z,78.90
2017-12-27T21:42:32.804Z,76.89
2017-12-27T21:45:00.877Z,76.94
2017-12-27T21:50:29.210Z,75.13
2017-12-27T21:52:55.076Z,75.58
2017-12-27T21:55:20.888Z,76.14
2017-12-27T21:57:46.737Z,75.32
2017-12-27T22:00:18.685Z,74.90
2017-12-27T22:02:44.489Z,74.12
2017-12-27T22:05:10.304Z,74.80
2017-12-27T22:07:36.123Z,74.22
2017-12-27T22:10:02.141Z,74.73
2017-12-27T22:12:28.011Z,74.50
2017-12-27T22:14:53.825Z,73.25
2017-12-27T22:17:19.669Z,72.40
2017-12-27T22:19:45.510Z,73.41
2017-12-27T22:22:11.327Z,73.01
2017-12-27T22:24:37.174Z,73.63
2017-12-27T22:27:03.641Z,73.71
2017-12-27T22:29:29.553Z,73.00
2017-12-27T22:31:55.511Z,73.22
2017-12-27T22:34:21.331Z,73.18
2017-12-27T22:36:47.191Z,73.87
2017-12-27T22:39:13.030Z,74.30
2017-12-27T22:41:38.866Z,73.97
2017-12-27T22:44:04.682Z,73.65
2017-12-27T22:46:30.544Z,73.59
2017-12-27T22:48:56.407Z,73.32
2017-12-27T22:51:22.179Z,73.72
2017-12-27T22:53:48.015Z,74.01
2017-12-27T22:56:13.891Z,74.21
2017-12-27T22:58:39.740Z,74.01
2017-12-27T23:01:05.545Z,74.27
2017-12-27T23:03:31.392Z,74.38
2017-12-27T23:05:57.242Z,74.69
2017-12-27T23:08:23.072Z,73.62
2017-12-27T23:10:48.918Z,74.33
2017-12-27T23:13:16.266Z,74.57
2017-12-27T23:15:42.075Z,74.79
2017-12-27T23:18:11.641Z,74.10
2017-12-27T23:20:37.472Z,74.44
2017-12-27T23:23:03.362Z,75.04
2017-12-27T23:25:29.168Z,75.34
2017-12-27T23:27:55.008Z,75.03
2017-12-27T23:30:22.662Z,75.04
2017-12-27T23:32:48.526Z,74.41
2017-12-27T23:35:17.969Z,74.40
2017-12-27T23:37:43.822Z,74.49
2017-12-27T23:40:12.212Z,75.74
2017-12-27T23:42:38.048Z,76.39
2017-12-27T23:45:07.820Z,77.13
2017-12-27T23:47:33.640Z,77.81
2017-12-27T23:50:01.031Z,78.44
2017-12-27T23:52:26.850Z,79.04
2017-12-27T23:54:57.439Z,79.81
2017-12-27T23:57:23.296Z,80.51
2017-12-27T23:59:49.120Z,81.11
